Time;durP1;ratioP1;P1;durP2;ratioP2;P2;SDS_P1;SDS_P2;PMS_P1;PMS_P2;Temp;Humidity;BMP_temperature;BMP_pressure;BME280_temperature;BME280_humidity;BME280_pressure;Samples;Min_cycle;Max_cycle;Signal;HPM_P1;HPM_P2
2023/02/08 00:01:15;;;;;;;13.38;8.15;;;;;;;-4.04;55.36;102394.03;5074356;28;20446;-52
2023/02/08 00:03:41;;;;;;;16.27;8.88;;;;;;;-4.06;55.25;102395.72;5074139;28;20120;-51
2023/02/08 00:06:08;;;;;;;14.27;8.73;;;;;;;-4.14;55.64;102408.66;5073915;28;20112;-51
2023/02/08 00:08:34;;;;;;;14.73;8.13;;;;;;;-4.27;55.16;102386.56;5074361;28;20032;-54
2023/02/08 00:10:59;;;;;;;15.90;8.60;;;;;;;-4.22;55.25;102400.63;5075123;28;20029;-48
2023/02/08 00:13:25;;;;;;;13.85;8.35;;;;;;;-4.22;55.47;102395.38;5074574;28;20021;-48
2023/02/08 00:15:52;;;;;;;13.90;8.15;;;;;;;-4.20;55.46;102400.66;5075475;28;20079;-52
2023/02/08 00:18:18;;;;;;;15.32;9.13;;;;;;;-4.16;56.09;102396.38;5074834;28;20107;-50
2023/02/08 00:20:44;;;;;;;16.27;8.40;;;;;;;-4.14;55.10;102381.59;5074894;28;20107;-47
2023/02/08 00:23:11;;;;;;;14.90;8.85;;;;;;;-4.10;55.39;102391.25;5074208;28;20032;-50
2023/02/08 00:25:38;;;;;;;15.35;8.77;;;;;;;-4.16;55.85;102378.06;5074753;28;20040;-50
2023/02/08 00:28:03;;;;;;;17.75;8.90;;;;;;;-4.15;55.36;102379.81;5074837;28;20055;-48
2023/02/08 00:30:29;;;;;;;16.40;8.73;;;;;;;-4.19;55.68;102376.28;5074659;28;20090;-47
2023/02/08 00:32:54;;;;;;;14.98;8.77;;;;;;;-4.19;55.57;102379.75;5074881;28;20059;-48
2023/02/08 00:35:20;;;;;;;14.70;8.75;;;;;;;-4.20;55.34;102375.38;5075127;28;20033;-48
2023/02/08 00:37:45;;;;;;;13.77;8.45;;;;;;;-4.16;55.50;102378.94;5074551;28;20086;-50
2023/02/08 00:40:11;;;;;;;15.82;9.05;;;;;;;-4.15;55.96;102365.00;5074456;28;20115;-50
2023/02/08 00:42:36;;;;;;;18.08;9.23;;;;;;;-4.12;55.79;102375.53;5073264;28;20063;-52
2023/02/08 00:45:02;;;;;;;15.75;8.80;;;;;;;-4.15;55.58;102367.63;5074936;28;20032;-50
2023/02/08 00:47:30;;;;;;;14.27;8.20;;;;;;;-4.06;55.53;102380.91;5074452;28;20040;-50
2023/02/08 00:49:55;;;;;;;14.00;8.48;;;;;;;-4.09;55.49;102379.97;5074153;28;20355;-51
2023/02/08 00:52:21;;;;;;;14.43;8.32;;;;;;;-4.23;55.51;102377.03;5073728;28;20406;-50
2023/02/08 00:54:47;;;;;;;12.98;8.00;;;;;;;-4.40;55.71;102360.97;5073159;28;20032;-51
2023/02/08 00:57:13;;;;;;;12.13;7.75;;;;;;;-4.33;55.76;102375.97;5074255;28;20032;-54
2023/02/08 00:59:38;;;;;;;15.60;8.30;;;;;;;-4.28;56.05;102379.56;5072823;28;20031;-49
2023/02/08 01:02:04;;;;;;;13.95;8.07;;;;;;;-4.24;55.39;102376.16;5074248;28;20032;-53
2023/02/08 01:04:30;;;;;;;13.40;7.72;;;;;;;-4.23;55.58;102385.78;5073797;28;20379;-52
2023/02/08 01:06:55;;;;;;;13.15;7.82;;;;;;;-4.19;55.17;102382.38;5073977;28;20041;-50
2023/02/08 01:09:21;;;;;;;16.17;8.05;;;;;;;-4.38;55.45;102333.09;5074173;28;20035;-50
2023/02/08 01:11:46;;;;;;;14.85;8.27;;;;;;;-4.30;55.31;102364.66;5073608;28;20143;-53
2023/02/08 01:14:12;;;;;;;13.55;8.15;;;;;;;-4.48;56.04;102340.75;5072816;28;20020;-54
2023/02/08 01:16:37;;;;;;;14.75;8.25;;;;;;;-4.29;56.12;102372.56;5073533;28;20070;-55
2023/02/08 01:19:04;;;;;;;12.23;7.70;;;;;;;-4.25;55.55;102369.16;5073633;28;20032;-51
2023/02/08 01:21:35;;;;;;;13.85;8.32;;;;;;;-4.20;56.13;102377.13;5073460;28;20454;-50
2023/02/08 01:24:01;;;;;;;14.48;8.05;;;;;;;-4.24;55.12;102365.69;5073704;28;20044;-49
2023/02/08 01:26:27;;;;;;;16.10;8.68;;;;;;;-4.14;55.31;102373.72;5073699;28;20262;-47
2023/02/08 01:28:54;;;;;;;13.88;8.45;;;;;;;-4.13;55.20;102365.03;5072409;28;20039;-52
2023/02/08 01:31:28;;;;;;;13.60;8.02;;;;;;;-4.10;55.12;102370.31;5073562;28;20079;-50
2023/02/08 01:33:54;;;;;;;14.35;8.07;;;;;;;-4.09;55.26;102367.75;5073669;28;20036;-53
2023/02/08 01:36:20;;;;;;;12.15;7.63;;;;;;;-4.11;54.96;102364.22;5072915;28;20024;-48
2023/02/08 01:38:46;;;;;;;16.25;8.40;;;;;;;-4.17;55.42;102371.94;5072987;28;20043;-51
2023/02/08 01:41:21;;;;;;;13.15;7.43;;;;;;;-4.20;55.54;102379.75;5073590;28;20106;-48
2023/02/08 01:44:05;;;;;;;15.07;7.93;;;;;;;-4.23;55.75;102372.69;5073101;28;20041;-52
2023/02/08 01:46:32;;;;;;;18.13;7.80;;;;;;;-4.30;55.19;102375.13;5073211;28;20033;-52
2023/02/08 01:49:05;;;;;;;13.70;7.85;;;;;;;-4.49;55.80;102340.72;5072509;28;20036;-47
2023/02/08 01:51:36;;;;;;;13.02;7.63;;;;;;;-4.32;55.35;102377.72;5073569;28;20043;-51
2023/02/08 01:54:04;;;;;;;16.20;8.23;;;;;;;-4.27;55.17;102376.09;5072603;28;20085;-49
2023/02/08 01:56:33;;;;;;;14.20;8.05;;;;;;;-4.28;55.55;102376.94;5072638;28;20127;-51
2023/02/08 01:59:01;;;;;;;14.93;8.43;;;;;;;-4.26;55.51;102367.41;5073089;28;20060;-49
2023/02/08 02:01:29;;;;;;;13.10;8.10;;;;;;;-4.20;55.48;102374.50;5071363;28;20028;-46
2023/02/08 02:03:56;;;;;;;13.35;7.93;;;;;;;-4.26;55.38;102363.88;5072832;28;20037;-50
2023/02/08 02:06:28;;;;;;;13.60;7.63;;;;;;;-4.19;55.16;102379.75;5072712;28;20051;-49
2023/02/08 02:09:06;;;;;;;13.80;8.35;;;;;;;-4.20;54.66;102361.44;5073395;28;20037;-50
2023/02/08 02:11:32;;;;;;;14.73;8.10;;;;;;;-4.30;55.18;102355.09;5072133;28;20411;-50
2023/02/08 02:13:59;;;;;;;12.70;7.30;;;;;;;-4.26;55.02;102367.41;5072449;28;20052;-50
2023/02/08 02:16:44;;;;;;;12.63;7.65;;;;;;;-4.23;54.91;102362.22;5071694;28;20036;-48
2023/02/08 02:19:29;;;;;;;13.85;7.70;;;;;;;-4.24;54.58;102364.78;5073190;28;20557;-53
2023/02/08 02:22:21;;;;;;;14.48;7.68;;;;;;;-4.26;54.98;102359.56;5072881;28;20028;-47
2023/02/08 02:24:49;;;;;;;12.98;7.47;;;;;;;-4.25;55.09;102357.81;5071917;28;20051;-50
2023/02/08 02:27:26;;;;;;;14.57;7.82;;;;;;;-4.27;54.55;102354.28;5071492;28;20416;-48
2023/02/08 02:30:21;;;;;;;13.40;7.75;;;;;;;-4.28;54.77;102362.97;5073101;28;20028;-49
2023/02/08 02:33:02;;;;;;;15.30;7.57;;;;;;;-4.27;54.63;102364.72;5072638;28;20032;-48
2023/02/08 02:35:51;;;;;;;12.00;7.07;;;;;;;-4.30;54.50;102362.97;5071509;28;20506;-49
2023/02/08 02:38:31;;;;;;;14.23;7.93;;;;;;;-4.38;54.88;102361.88;5072910;28;20060;-48
2023/02/08 02:41:08;;;;;;;12.02;7.28;;;;;;;-4.41;54.85;102360.09;5072162;28;20553;-50
2023/02/08 02:43:53;;;;;;;12.68;7.22;;;;;;;-4.54;55.52;102364.16;5072358;28;20075;-49
2023/02/08 02:46:40;;;;;;;14.85;7.50;;;;;;;-4.53;55.58;102372.88;5072031;28;20033;-49
2023/02/08 02:49:16;;;;;;;12.27;6.78;;;;;;;-4.55;55.11;102380.72;5071885;28;20048;-50
2023/02/08 02:51:48;;;;;;;12.85;6.95;;;;;;;-4.51;55.16;102364.22;5072697;28;20441;-50
2023/02/08 02:54:17;;;;;;;11.65;6.88;;;;;;;-4.49;55.31;102362.53;5070888;28;20035;-51
2023/02/08 02:56:46;;;;;;;12.25;6.78;;;;;;;-4.49;55.60;102357.31;5072178;28;20040;-53
2023/02/08 02:59:13;;;;;;;12.75;7.32;;;;;;;-4.45;55.16;102365.22;5072701;28;20036;-51
2023/02/08 03:01:40;;;;;;;11.88;6.82;;;;;;;-4.47;55.61;102355.59;5072365;28;20068;-52
2023/02/08 03:04:31;;;;;;;12.90;7.57;;;;;;;-4.36;55.81;102366.31;5072434;28;20029;-51
2023/02/08 03:07:18;;;;;;;12.20;6.85;;;;;;;-4.25;55.12;102363.03;5070631;28;20050;-48
2023/02/08 03:10:23;;;;;;;15.73;7.10;;;;;;;-4.28;55.84;102357.75;5071881;28;20040;-52
2023/02/08 03:13:02;;;;;;;11.57;6.63;;;;;;;-4.25;55.70;102355.19;5070713;28;20455;-51
2023/02/08 03:15:46;;;;;;;12.48;7.18;;;;;;;-4.22;55.04;102353.53;5071829;28;20047;-49
2023/02/08 03:18:33;;;;;;;12.40;7.03;;;;;;;-4.19;55.21;102350.97;5072375;28;20474;-50
2023/02/08 03:21:08;;;;;;;11.73;6.82;;;;;;;-4.12;55.18;102353.72;5072227;28;20032;-48
2023/02/08 03:23:45;;;;;;;11.13;6.63;;;;;;;-4.12;55.18;102351.09;5072000;28;20055;-51
2023/02/08 03:26:32;;;;;;;12.63;6.60;;;;;;;-4.09;55.43;102343.34;5072441;28;20021;-50
2023/02/08 03:29:33;;;;;;;11.20;6.82;;;;;;;-4.06;55.44;102339.03;5072136;28;20036;-47
2023/02/08 03:32:03;;;;;;;10.77;6.20;;;;;;;-4.06;54.85;102331.19;5051131;28;20072;-53
2023/02/08 03:34:46;;;;;;;10.65;6.25;;;;;;;-4.01;55.10;102335.63;5055990;28;20024;-52
2023/02/08 03:37:20;;;;;;;11.32;6.05;;;;;;;-4.07;55.36;102315.47;5072454;28;20451;-50
2023/02/08 03:39:49;;;;;;;12.98;7.63;;;;;;;-4.10;55.21;102315.38;5071780;28;20028;-50
2023/02/08 03:42:22;;;;;;;11.05;6.00;;;;;;;-4.08;55.65;102305.84;5072023;28;20149;-49
2023/02/08 03:44:57;;;;;;;10.32;6.15;;;;;;;-4.08;55.71;102298.88;5072154;28;20394;-54
2023/02/08 03:47:24;;;;;;;;;;;;;;;-3.76;55.38;102313.44;5073083;28;20028;-49
2023/02/08 03:49:54;;;;;;;12.73;5.68;;;;;;;-3.89;54.80;102321.03;5074878;28;19912;-53
2023/02/08 03:52:21;;;;;;;10.98;6.60;;;;;;;-4.06;55.22;102297.16;5066048;28;20099;-47
2023/02/08 03:55:04;;;;;;;11.25;6.55;;;;;;;-4.09;55.22;102285.78;5055655;28;20039;-51
2023/02/08 03:57:56;;;;;;;11.55;6.30;;;;;;;-3.86;55.26;102315.00;5055645;28;20039;-49
2023/02/08 04:00:22;;;;;;;10.55;6.30;;;;;;;-3.85;55.48;102305.44;5062800;28;20040;-47
2023/02/08 04:02:55;;;;;;;11.57;6.85;;;;;;;-4.00;55.30;102272.84;5075013;28;20105;-53
2023/02/08 04:05:22;;;;;;;9.57;5.47;;;;;;;-3.81;55.68;102302.88;5074455;28;20044;-49
2023/02/08 04:07:47;;;;;;;11.32;6.28;;;;;;;-3.81;55.68;102302.00;5074266;28;20047;-49
2023/02/08 04:10:13;;;;;;;10.10;5.85;;;;;;;-3.80;55.98;102299.41;5073711;28;20443;-52
2023/02/08 04:12:39;;;;;;;10.85;6.13;;;;;;;-3.77;55.39;102295.97;5075046;28;20098;-50
2023/02/08 04:15:04;;;;;;;10.90;6.03;;;;;;;-3.71;55.28;102290.84;5075562;28;20446;-48
2023/02/08 04:17:31;;;;;;;9.32;5.75;;;;;;;-3.71;55.49;102297.84;5075309;28;20041;-47
2023/02/08 04:19:57;;;;;;;10.23;5.90;;;;;;;-3.67;56.00;102300.50;5075018;28;20039;-49
2023/02/08 04:22:22;;;;;;;10.35;5.72;;;;;;;-3.66;55.32;102289.19;5075079;28;20025;-50
2023/02/08 04:24:48;;;;;;;9.43;5.93;;;;;;;-3.59;56.25;102291.94;5074852;28;20032;-53
2023/02/08 04:27:14;;;;;;;8.88;6.05;;;;;;;-3.63;56.18;102281.38;5075179;28;20367;-52
2023/02/08 04:29:40;;;;;;;9.95;5.93;;;;;;;-3.59;56.07;102282.31;5074227;28;20037;-52
2023/02/08 04:32:10;;;;;;;10.50;5.78;;;;;;;-3.55;55.88;102285.91;5074355;28;20090;-51
2023/02/08 04:34:37;;;;;;;10.27;5.45;;;;;;;-3.53;55.78;102289.41;5074362;28;20044;-51
2023/02/08 04:37:03;;;;;;;9.27;5.82;;;;;;;-3.51;55.75;102279.84;5074492;28;20086;-53
2023/02/08 04:39:28;;;;;;;10.77;5.95;;;;;;;-3.51;56.17;102287.72;5074429;28;20036;-49
2023/02/08 04:41:54;;;;;;;11.20;5.60;;;;;;;-3.51;55.90;102283.34;5074226;28;20068;-51
2023/02/08 04:44:19;;;;;;;10.60;5.75;;;;;;;-3.48;56.31;102275.56;5073960;28;20420;-51
2023/02/08 04:46:45;;;;;;;10.10;5.82;;;;;;;-3.44;56.32;102279.09;5074402;28;20044;-51
2023/02/08 04:49:10;;;;;;;9.38;5.65;;;;;;;-3.40;56.63;102283.53;5074140;28;20028;-48
2023/02/08 04:51:36;;;;;;;10.50;6.00;;;;;;;-3.46;56.58;102273.84;5073921;28;20032;-54
2023/02/08 04:54:01;;;;;;;10.55;6.45;;;;;;;-3.47;56.71;102261.59;5072892;28;20358;-50
2023/02/08 04:56:27;;;;;;;14.10;7.05;;;;;;;-3.36;56.24;102269.66;5073466;28;20040;-56
2023/02/08 04:58:52;;;;;;;12.85;6.43;;;;;;;-3.28;56.60;102274.13;5073728;28;20359;-57
2023/02/08 05:01:17;;;;;;;10.30;5.93;;;;;;;-3.25;56.40;102271.56;5074434;28;20131;-51
2023/02/08 05:03:43;;;;;;;12.57;6.40;;;;;;;-3.18;56.27;102283.88;5073711;28;20103;-52
2023/02/08 05:06:08;;;;;;;9.85;6.10;;;;;;;-3.17;56.22;102272.53;5074142;28;20672;-52
2023/02/08 05:08:34;;;;;;;12.60;6.40;;;;;;;-3.16;56.43;102269.06;5074043;28;20158;-50
2023/02/08 05:10:59;;;;;;;12.65;6.65;;;;;;;-3.25;56.15;102251.47;5073204;28;20399;-52
2023/02/08 05:13:25;;;;;;;12.43;6.28;;;;;;;-3.24;56.28;102247.09;5073825;28;20039;-53
2023/02/08 05:15:50;;;;;;;11.23;5.53;;;;;;;-3.08;56.25;102261.31;5073575;28;20407;-58
2023/02/08 05:18:16;;;;;;;13.40;6.47;;;;;;;-2.99;56.11;102271.06;5065092;28;21120;-48
2023/02/08 05:20:41;;;;;;;11.68;6.03;;;;;;;-3.02;56.04;102261.41;5073729;28;20036;-52
2023/02/08 05:23:07;;;;;;;13.02;7.07;;;;;;;-3.01;55.99;102260.59;5073805;28;20036;-53
2023/02/08 05:25:32;;;;;;;10.80;6.35;;;;;;;-2.96;55.95;102255.38;5072411;28;20111;-51
2023/02/08 05:27:58;;;;;;;11.52;6.80;;;;;;;-3.09;56.15;102260.47;5073602;28;20044;-53
2023/02/08 05:30:24;;;;;;;14.30;7.00;;;;;;;-3.13;56.43;102265.63;5073658;28;20444;-54
2023/02/08 05:32:49;;;;;;;10.90;5.95;;;;;;;-3.04;55.34;102265.75;5073495;28;20031;-54
2023/02/08 05:35:15;;;;;;;12.90;7.28;;;;;;;-3.23;56.33;102254.13;5073333;28;20032;-53
2023/02/08 05:37:40;;;;;;;13.18;7.32;;;;;;;-3.19;56.34;102266.41;5073005;28;20060;-55
2023/02/08 05:40:06;;;;;;;13.95;7.43;;;;;;;-3.16;56.46;102266.44;5073009;28;20028;-54
2023/02/08 05:42:32;;;;;;;14.43;7.72;;;;;;;-3.37;56.01;102225.06;5073416;28;20367;-52
2023/02/08 05:44:57;;;;;;;12.63;6.63;;;;;;;-3.16;56.28;102261.19;5073117;28;20123;-54
2023/02/08 05:47:23;;;;;;;13.10;7.10;;;;;;;-3.11;56.42;102253.41;5073044;28;20100;-54
2023/02/08 05:49:48;;;;;;;12.93;7.10;;;;;;;-3.08;56.60;102259.59;5073357;28;20032;-53
2023/02/08 05:52:14;;;;;;;13.85;7.53;;;;;;;-3.11;55.96;102251.69;5073319;28;20131;-54
2023/02/08 05:54:39;;;;;;;13.88;6.95;;;;;;;-3.23;56.18;102226.19;5072730;28;20060;-56
2023/02/08 05:57:05;;;;;;;13.88;7.60;;;;;;;-3.14;56.65;102251.63;5072980;28;20082;-52
2023/02/08 05:59:30;;;;;;;13.52;7.55;;;;;;;-2.97;55.53;102261.50;5073296;28;20031;-52
2023/02/08 06:01:56;;;;;;;13.77;7.38;;;;;;;-2.99;55.87;102248.38;5072674;28;20076;-53
2023/02/08 06:04:21;;;;;;;12.68;7.35;;;;;;;-2.98;56.24;102246.63;5073076;28;20028;-54
2023/02/08 06:06:47;;;;;;;15.43;7.50;;;;;;;-2.93;55.71;102252.81;5072712;28;20454;-57
2023/02/08 06:09:12;;;;;;;16.30;7.68;;;;;;;-2.93;55.33;102244.94;5072778;28;20237;-52
2023/02/08 06:11:38;;;;;;;14.20;7.65;;;;;;;-2.95;55.86;102244.94;5072446;28;20055;-52
2023/02/08 06:14:03;;;;;;;19.00;8.75;;;;;;;-2.91;55.62;102251.97;5072629;28;20032;-56
2023/02/08 06:16:29;;;;;;;15.80;7.93;;;;;;;-3.04;55.46;102224.72;5072558;28;20408;-52
2023/02/08 06:18:54;;;;;;;15.00;8.45;;;;;;;-2.83;55.36;102251.19;5072820;28;20125;-53
2023/02/08 06:21:20;;;;;;;16.63;8.70;;;;;;;-2.70;54.99;102253.16;5073408;28;20374;-54
2023/02/08 06:23:45;;;;;;;13.75;7.78;;;;;;;-2.87;55.24;102224.09;5072259;28;20033;-57
2023/02/08 06:26:11;;;;;;;15.48;8.75;;;;;;;-2.74;54.76;102246.09;5071875;28;20130;-51
2023/02/08 06:28:36;;;;;;;18.27;9.07;;;;;;;-2.77;55.18;102248.69;5060631;28;20935;-59
2023/02/08 06:31:02;;;;;;;13.95;7.57;;;;;;;-2.71;55.08;102255.75;5057604;28;20069;-54
2023/02/08 06:33:27;;;;;;;14.63;8.07;;;;;;;-2.67;55.32;102254.91;5061194;28;20078;-56
2023/02/08 06:35:53;;;;;;;19.90;8.55;;;;;;;-2.68;54.96;102242.66;5070542;28;20374;-53
2023/02/08 06:38:19;;;;;;;15.27;8.68;;;;;;;-2.68;54.47;102242.66;5070466;28;20073;-55
2023/02/08 06:40:48;;;;;;;16.13;8.68;;;;;;;-2.66;55.42;102235.69;5069980;28;20135;-56
2023/02/08 06:43:14;;;;;;;16.13;8.73;;;;;;;-2.60;54.72;102236.66;5067514;28;20509;-56
2023/02/08 06:45:41;;;;;;;15.80;8.65;;;;;;;-2.55;54.76;102233.22;5050165;28;20083;-56
2023/02/08 06:48:07;;;;;;;16.58;8.68;;;;;;;-2.46;54.66;102238.59;5050037;28;20037;-56
2023/02/08 06:50:32;;;;;;;15.32;8.65;;;;;;;-2.36;54.38;102231.72;5065965;28;20036;-58
2023/02/08 06:52:57;;;;;;;18.35;8.45;;;;;;;-2.31;54.42;102222.16;5069503;28;20028;-56
2023/02/08 06:55:23;;;;;;;16.33;9.45;;;;;;;-2.25;54.12;102216.97;5071318;28;20427;-57
2023/02/08 06:57:52;;;;;;;14.13;7.90;;;;;;;-2.25;54.29;102223.97;5071654;28;20244;-55
2023/02/08 07:00:18;;;;;;;17.10;8.68;;;;;;;-2.40;53.78;102196.69;5053519;28;20029;-60
2023/02/08 07:02:46;;;;;;;17.80;8.57;;;;;;;-2.24;54.00;102212.63;5051961;28;20025;-56
2023/02/08 07:05:12;;;;;;;15.88;8.20;;;;;;;-2.21;53.98;102213.50;5065519;28;20366;-56
2023/02/08 07:07:37;;;;;;;18.23;9.55;;;;;;;-2.49;53.90;102150.22;5070347;28;20149;-54
2023/02/08 07:10:03;;;;;;;16.05;8.77;;;;;;;-2.08;53.61;102211.91;5070776;28;20077;-57
2023/02/08 07:12:33;;;;;;;15.57;8.13;;;;;;;-2.10;53.30;102184.75;5057212;28;20370;-54
2023/02/08 07:14:58;;;;;;;20.42;9.25;;;;;;;-1.97;53.64;102216.41;5055877;28;20089;-54
2023/02/08 07:17:23;;;;;;;15.07;8.15;;;;;;;-1.94;53.65;102208.53;5072147;28;20107;-58
2023/02/08 07:19:49;;;;;;;18.17;9.43;;;;;;;-1.90;53.38;102208.59;5071642;28;20115;-56
2023/02/08 07:22:15;;;;;;;18.73;8.70;;;;;;;-1.86;53.50;102213.88;5072808;28;20025;-51
2023/02/08 07:24:40;;;;;;;17.52;8.27;;;;;;;-1.86;53.46;102200.75;5075687;28;20553;-53
2023/02/08 07:27:09;;;;;;;20.65;9.60;;;;;;;-1.66;53.54;102211.44;5075337;28;20107;-53
2023/02/08 07:29:35;;;;;;;18.15;8.75;;;;;;;-1.63;53.26;102214.97;5066616;28;20032;-52
2023/02/08 07:32:02;;;;;;;16.48;9.25;;;;;;;-1.63;52.80;102214.97;5055171;28;20048;-52
2023/02/08 07:34:30;;;;;;;18.85;8.95;;;;;;;-1.59;52.91;102208.88;5063493;28;20427;-55
2023/02/08 07:36:55;;;;;;;15.40;8.25;;;;;;;-1.54;53.37;102206.28;5055968;28;20471;-55
2023/02/08 07:39:21;;;;;;;17.98;9.27;;;;;;;-1.47;52.53;102210.72;5055314;28;20037;-51
2023/02/08 07:41:47;;;;;;;18.30;9.27;;;;;;;-1.53;52.63;102197.53;5070574;28;20129;-53
2023/02/08 07:44:13;;;;;;;22.08;9.40;;;;;;;-1.54;52.82;102202.78;5074945;28;20024;-51
2023/02/08 07:46:39;;;;;;;16.13;8.82;;;;;;;-1.55;52.66;102214.16;5075508;28;20109;-52
2023/02/08 07:49:05;;;;;;;19.73;9.40;;;;;;;-1.54;52.96;102206.28;5074862;28;20100;-54
2023/02/08 07:51:31;;;;;;;16.45;9.38;;;;;;;-1.54;52.96;102194.88;5073625;28;20115;-53
2023/02/08 07:53:56;;;;;;;19.88;9.13;;;;;;;-1.53;53.38;102208.06;5075317;28;20510;-53
2023/02/08 07:56:22;;;;;;;16.05;8.70;;;;;;;-1.50;53.25;102201.91;5075485;28;20101;-50
2023/02/08 07:58:47;;;;;;;19.40;8.77;;;;;;;-1.48;52.98;102194.94;5074928;28;20062;-52
2023/02/08 08:01:13;;;;;;;18.65;8.38;;;;;;;-1.37;52.85;102198.53;5054373;28;20025;-55
2023/02/08 08:03:38;;;;;;;16.13;8.13;;;;;;;-1.33;52.55;102189.78;5054937;28;20025;-54
2023/02/08 08:06:04;;;;;;;13.05;7.20;;;;;;;-1.32;53.03;102193.31;5055442;28;20360;-54
2023/02/08 08:08:29;;;;;;;15.20;8.48;;;;;;;-1.32;52.30;102190.69;5067298;28;20040;-53
2023/02/08 08:10:56;;;;;;;15.02;8.65;;;;;;;-1.24;52.75;102186.34;5058021;28;20383;-53
2023/02/08 08:13:22;;;;;;;18.67;8.20;;;;;;;-1.22;52.04;102187.25;5072339;28;20055;-55
2023/02/08 08:15:47;;;;;;;19.05;8.95;;;;;;;-1.37;52.58;102167.00;5074210;28;20501;-56
2023/02/08 08:18:13;;;;;;;15.90;7.72;;;;;;;-1.30;52.58;102184.56;5066494;28;20431;-51
2023/02/08 08:20:38;;;;;;;15.18;8.65;;;;;;;-1.35;53.00;102173.13;5073979;28;20408;-52
2023/02/08 08:23:04;;;;;;;16.30;8.38;;;;;;;-1.39;53.18;102168.75;5074872;28;20036;-54
2023/02/08 08:25:29;;;;;;;14.20;7.80;;;;;;;-1.32;53.21;102178.41;5074222;28;20039;-58
2023/02/08 08:27:55;;;;;;;14.40;8.45;;;;;;;-1.26;53.07;102174.97;5073665;28;20032;-52
2023/02/08 08:30:21;;;;;;;17.40;8.63;;;;;;;-1.17;52.75;102163.63;5072533;28;20039;-51
2023/02/08 08:32:47;;;;;;;13.65;7.53;;;;;;;-1.09;52.57;102161.91;5073674;28;20110;-53
2023/02/08 08:35:13;;;;;;;16.73;8.43;;;;;;;-1.09;52.64;102164.53;5073588;28;20035;-53
2023/02/08 08:37:38;;;;;;;14.68;8.38;;;;;;;-1.13;52.74;102165.41;5073681;28;20071;-54
2023/02/08 08:40:05;;;;;;;14.40;8.18;;;;;;;-1.16;52.64;102162.75;5074173;28;20035;-52
2023/02/08 08:42:32;;;;;;;14.30;8.18;;;;;;;-1.21;52.63;102162.72;5073961;28;20041;-51
2023/02/08 08:44:58;;;;;;;16.10;8.70;;;;;;;-1.24;53.02;102153.91;5067709;28;20052;-52
2023/02/08 08:47:23;;;;;;;19.90;9.45;;;;;;;-1.20;52.91;102158.34;5067996;28;20029;-52
2023/02/08 08:49:48;;;;;;;19.55;8.43;;;;;;;-1.15;52.71;102154.00;5070220;28;20028;-51
2023/02/08 08:52:14;;;;;;;19.65;8.90;;;;;;;-1.08;52.56;102150.50;5074163;28;20046;-54
2023/02/08 08:54:40;;;;;;;19.85;8.35;;;;;;;-0.99;52.79;102138.28;5073635;28;20399;-51
2023/02/08 08:57:05;;;;;;;18.60;8.18;;;;;;;-0.80;52.06;102140.13;5074451;28;20048;-55
2023/02/08 08:59:32;;;;;;;15.63;8.15;;;;;;;-0.68;52.48;102139.28;5073765;28;20028;-51
2023/02/08 09:01:57;;;;;;;17.20;8.05;;;;;;;-0.41;51.63;102136.75;5073973;28;20091;-52
2023/02/08 09:04:23;;;;;;;17.73;8.85;;;;;;;-0.13;51.11;102132.38;5073869;28;20549;-53
2023/02/08 09:06:49;;;;;;;16.20;7.97;;;;;;;0.09;50.79;102128.03;5073546;28;20132;-51
2023/02/08 09:09:16;;;;;;;17.85;8.20;;;;;;;0.12;50.32;102099.06;5073642;28;20447;-52
2023/02/08 09:11:41;;;;;;;18.83;8.32;;;;;;;0.33;49.87;102107.81;5072467;28;20059;-56
2023/02/08 09:14:07;;;;;;;14.48;8.40;;;;;;;0.39;49.84;102102.53;5060757;28;20129;-54
2023/02/08 09:16:33;;;;;;;16.58;8.07;;;;;;;0.43;49.26;102109.56;5072810;28;20024;-55
2023/02/08 09:19:04;;;;;;;12.70;7.63;;;;;;;0.43;49.51;102111.34;5073251;28;20025;-56
2023/02/08 09:21:30;;;;;;;13.20;7.38;;;;;;;0.36;49.54;102110.47;5073567;28;20028;-55
2023/02/08 09:23:55;;;;;;;15.48;7.72;;;;;;;0.37;49.58;102109.56;5073491;28;20370;-51
2023/02/08 09:26:21;;;;;;;13.30;8.35;;;;;;;0.37;49.74;102112.22;5072764;28;20125;-56
2023/02/08 09:28:46;;;;;;;13.93;7.93;;;;;;;0.32;50.06;102092.91;5073204;28;20033;-53
2023/02/08 09:31:18;;;;;;;14.00;8.23;;;;;;;0.35;50.38;102106.06;5072187;28;20051;-54
2023/02/08 09:33:44;;;;;;;13.15;7.78;;;;;;;0.23;50.38;102119.22;5071633;28;20089;-56
2023/02/08 09:36:10;;;;;;;13.63;8.00;;;;;;;0.05;50.63;102092.03;5072924;28;20032;-62
2023/02/08 09:38:38;;;;;;;13.45;7.45;;;;;;;-0.09;50.58;102109.59;5064092;28;20036;-54
2023/02/08 09:41:23;;;;;;;13.75;8.20;;;;;;;-0.17;51.99;102107.84;5073428;28;20063;-56
2023/02/08 09:43:55;;;;;;;15.73;8.65;;;;;;;-0.31;51.72;102106.94;5072522;28;20349;-52
2023/02/08 09:46:26;;;;;;;13.80;8.40;;;;;;;-0.36;52.08;102095.53;5072140;28;20040;-53
2023/02/08 09:48:54;;;;;;;13.43;8.25;;;;;;;-0.38;51.41;102110.44;5072842;28;20028;-53
2023/02/08 09:51:34;;;;;;;14.80;7.53;;;;;;;-0.42;51.90;102106.03;5062692;28;20025;-56
2023/02/08 09:54:15;;;;;;;17.88;8.00;;;;;;;-0.46;52.27;102106.03;5073125;28;20032;-57
2023/02/08 09:56:43;;;;;;;13.77;8.38;;;;;;;-0.71;52.10;102070.88;5072251;28;20066;-56
2023/02/08 09:59:25;;;;;;;14.57;7.93;;;;;;;-0.51;52.19;102099.00;5069430;28;20036;-54
2023/02/08 10:01:58;;;;;;;13.07;7.78;;;;;;;-0.39;51.69;102090.25;5057845;28;20116;-52
2023/02/08 10:04:57;;;;;;;17.95;8.38;;;;;;;-0.16;52.07;102078.00;5069842;28;20040;-60
2023/02/08 10:07:27;;;;;;;14.98;7.97;;;;;;;0.18;50.94;102084.13;5068526;28;20101;-57
2023/02/08 10:09:57;;;;;;;15.27;8.43;;;;;;;0.66;50.13;102065.59;5057189;28;20115;-56
2023/02/08 10:12:37;;;;;;;15.57;8.50;;;;;;;1.23;48.79;102060.06;5071464;28;20033;-57
2023/02/08 10:15:13;;;;;;;18.58;7.72;;;;;;;1.72;47.26;102060.63;5055595;28;20672;-55
2023/02/08 10:17:42;;;;;;;18.02;8.50;;;;;;;2.02;46.71;102050.69;5053906;28;20333;-56
2023/02/08 10:20:29;;;;;;;13.68;8.15;;;;;;;2.14;46.46;102047.91;5071028;28;20494;-54
2023/02/08 10:23:12;;;;;;;14.57;8.02;;;;;;;2.18;47.00;102047.91;5071382;28;20439;-57
2023/02/08 10:26:35;;;;;;;16.25;7.97;;;;;;;2.14;47.15;102047.91;5057717;28;20025;-57
2023/02/08 10:29:26;;;;;;;16.48;7.90;;;;;;;2.27;46.88;102034.59;4998292;28;20029;-55
2023/02/08 10:32:34;;;;;;;15.23;8.50;;;;;;;2.46;46.33;102029.97;4998990;28;20046;-59
2023/02/08 10:35:23;;;;;;;13.98;7.88;;;;;;;2.73;45.47;102023.50;5047795;28;20057;-57
2023/02/08 10:37:49;;;;;;;16.17;8.30;;;;;;;3.08;44.60;102021.28;5043393;28;20368;-57
2023/02/08 10:40:38;;;;;;;16.15;8.77;;;;;;;3.40;43.77;102025.22;5051285;28;20094;-56
2023/02/08 10:43:09;;;;;;;15.07;8.63;;;;;;;3.53;43.40;102020.63;5051126;28;20067;-56
2023/02/08 10:45:47;;;;;;;13.52;8.65;;;;;;;3.46;43.90;102026.91;5069896;28;20036;-56
2023/02/08 10:48:41;;;;;;;15.43;8.20;;;;;;;3.18;44.80;102027.34;5071292;28;20077;-58
2023/02/08 10:51:13;;;;;;;14.25;8.60;;;;;;;2.83;44.65;102021.63;5041048;28;20060;-56
2023/02/08 10:53:39;;;;;;;13.82;7.90;;;;;;;2.49;45.41;102016.72;5072226;28;20032;-55
2023/02/08 10:56:05;;;;;;;15.23;8.15;;;;;;;2.17;46.10;102014.41;5072530;28;20043;-57
2023/02/08 10:58:31;;;;;;;13.00;8.23;;;;;;;1.97;46.34;102023.44;5077936;28;20131;-55
2023/02/08 11:00:58;;;;;;;11.60;7.53;;;;;;;1.80;46.67;102035.03;5073109;28;20056;-56
2023/02/08 11:03:26;;;;;;;13.68;8.00;;;;;;;1.71;47.00;102024.53;5070226;28;20043;-57
2023/02/08 11:05:52;;;;;;;13.60;8.40;;;;;;;1.66;47.12;102021.94;5078444;28;20119;-60
2023/02/08 11:08:21;;;;;;;16.30;8.25;;;;;;;1.75;46.45;102034.19;5078678;28;20120;-52
2023/02/08 11:10:57;;;;;;;12.98;7.95;;;;;;;1.89;46.16;102038.47;5078448;28;20044;-58
2023/02/08 11:13:26;;;;;;;12.55;7.72;;;;;;;1.96;46.32;102037.53;5078255;28;20588;-55
2023/02/08 11:16:01;;;;;;;11.35;7.50;;;;;;;1.91;46.16;101999.69;5071701;28;20097;-52
2023/02/08 11:18:30;;;;;;;14.38;8.38;;;;;;;2.23;45.80;102027.59;5071301;28;20079;-56
2023/02/08 11:21:02;;;;;;;13.95;8.45;;;;;;;2.34;45.39;102030.13;5077719;28;20419;-57
2023/02/08 11:23:31;;;;;;;14.23;8.52;;;;;;;2.41;45.49;102030.06;5077841;28;20032;-54
2023/02/08 11:26:16;;;;;;;12.45;8.13;;;;;;;2.58;45.73;102019.28;5078357;28;20104;-53
2023/02/08 11:28:43;;;;;;;12.05;7.45;;;;;;;2.63;44.34;102021.84;5078472;28;20432;-60
2023/02/08 11:31:19;;;;;;;12.02;7.85;;;;;;;2.49;44.92;101985.00;5077401;28;20493;-57